This is the latest recevied weather packets stored in our database for station/object KF6ILA. If no packets are shown the sender has not sent any weather packets the latest 10 day(s).
| Time | Temp. | Humidity | Pressure | Rain* | Wind** | Luminosity | Snow |
|---|---|---|---|---|---|---|---|
| 1787597650 | 36.11° C | 31% | 1019.5 hPa | 0 mm | - | 1114 W/m² | - |
| 1787597353 | 35.56° C | 32% | 1019.6 hPa | 0 mm | - | 1106 W/m² | - |
| 1787596759 | 35.56° C | 31% | 1019.8 hPa | 0 mm | - | 1049 W/m² | - |
| 1787596463 | 35° C | 31% | 1019.9 hPa | 0 mm | - | 1055 W/m² | - |
| 1787596165 | 35° C | 32% | 1020 hPa | 0 mm | - | 1032 W/m² | - |
| 1787595868 | 33.89° C | 31% | 1020 hPa | 0 mm | - | 965 W/m² | - |
| 1787595571 | 33.33° C | 33% | 1020 hPa | 0 mm | - | 969 W/m² | - |
| 1787595274 | 32.78° C | 32% | 1020.1 hPa | 0 mm | - | 991 W/m² | - |
| 1787594977 | 32.22° C | 33% | 1020.2 hPa | 0 mm | - | 1011 W/m² | - |
| 1787594680 | 31.67° C | 33% | 1020.2 hPa | 0 mm | - | 1048 W/m² | - |
| 1787594383 | 31.67° C | 33% | 1020.2 hPa | 0 mm | - | 404 W/m² | - |
| 1787594086 | 31.67° C | 34% | 1020.2 hPa | 0 mm | - | 610 W/m² | - |
| 1787593789 | 31.67° C | 32% | 1020.3 hPa | 0 mm | - | 418 W/m² | - |
| 1787593492 | 31.67° C | 33% | 1020.3 hPa | 0 mm | - | 403 W/m² | - |
| 1787593196 | 31.67° C | 33% | 1020.4 hPa | 0 mm | - | 475 W/m² | - |
| 1787592898 | 32.22° C | 33% | 1020.3 hPa | 0 mm | - | 613 W/m² | - |
| 1787592601 | 31.67° C | 33% | 1020.4 hPa | 0 mm | - | 613 W/m² | - |
| 1787592305 | 31.67° C | 32% | 1020.3 hPa | 0 mm | - | 837 W/m² | - |
| 1787591711 | 31.11° C | 32% | 1020.2 hPa | 0 mm | - | 615 W/m² | - |
| 1787591414 | 30.56° C | 34% | 1020.2 hPa | 0 mm | - | 645 W/m² | - |
| 1787590523 | 28.33° C | 42% | 1020 hPa | 0 mm | - | 991 W/m² | - |
| 1787590226 | 27.22° C | 47% | 1020.1 hPa | 0 mm | - | 786 W/m² | - |
| 1787589928 | 27.22° C | - | - | 0 mm | - | - | - |
| 1787589632 | 26.67° C | 43% | 1020.2 hPa | 0 mm | - | 250 W/m² | - |
| 1787589334 | 26.67° C | 45% | 1020.1 hPa | 0 mm | - | 244 W/m² | - |
* Rain latest hour (hover to see other rain measurements)
** Current wind speed in m/s (hover to see current wind gust speed)